Time;durP1;ratioP1;P1;durP2;ratioP2;P2;SDS_P1;SDS_P2;PMS_P1;PMS_P2;Temp;Humidity;BMP_temperature;BMP_pressure;BME280_temperature;BME280_humidity;BME280_pressure;Samples;Min_cycle;Max_cycle;Signal;HPM_P1;HPM_P2
2023/02/15 00:00:12;;;;;;;43.83;18.55;;;2.00;99.90;;;;;;5021884;28;20022;-64
2023/02/15 00:02:38;;;;;;;44.50;18.70;;;2.00;99.90;;;;;;5020312;28;20026;-65
2023/02/15 00:05:04;;;;;;;44.13;18.08;;;1.90;99.90;;;;;;5026356;28;20104;-63
2023/02/15 00:07:30;;;;;;;44.42;17.85;;;1.90;99.90;;;;;;5026064;28;20113;-64
2023/02/15 00:09:55;;;;;;;36.72;18.15;;;1.90;99.90;;;;;;5030084;28;20071;-65
2023/02/15 00:12:21;;;;;;;44.17;19.05;;;1.80;99.90;;;;;;5044478;28;20025;-64
2023/02/15 00:14:47;;;;;;;44.45;19.85;;;1.80;99.90;;;;;;5043661;28;20452;-65
2023/02/15 00:17:13;;;;;;;43.03;18.55;;;1.90;99.90;;;;;;5049649;28;20048;-65
2023/02/15 00:19:39;;;;;;;39.03;18.25;;;1.80;99.90;;;;;;5039991;28;20053;-65
2023/02/15 00:22:06;;;;;;;40.03;18.67;;;1.80;99.90;;;;;;5036300;28;20064;-65
2023/02/15 00:24:32;;;;;;;41.42;19.63;;;1.80;99.90;;;;;;5037995;28;20427;-64
2023/02/15 00:26:57;;;;;;;40.20;17.98;;;1.90;99.90;;;;;;5043518;28;20025;-64
2023/02/15 00:29:24;;;;;;;37.78;18.02;;;1.80;99.90;;;;;;5043421;28;20480;-64
2023/02/15 00:31:49;;;;;;;49.55;20.27;;;1.90;99.90;;;;;;5038294;28;20017;-64
2023/02/15 00:34:16;;;;;;;42.13;19.20;;;1.80;99.90;;;;;;5050207;28;20100;-64
2023/02/15 00:36:43;;;;;;;49.05;18.45;;;1.80;99.90;;;;;;5044395;28;20051;-65
2023/02/15 00:39:08;;;;;;;39.45;18.20;;;1.80;99.90;;;;;;5041337;28;20052;-63
2023/02/15 00:41:34;;;;;;;42.85;17.63;;;1.80;99.90;;;;;;5038962;28;20068;-64
2023/02/15 00:44:00;;;;;;;48.03;20.02;;;1.80;99.90;;;;;;5041104;28;20250;-64
2023/02/15 00:46:26;;;;;;;40.45;19.05;;;1.80;99.90;;;;;;5033453;28;20819;-63
2023/02/15 00:48:51;;;;;;;41.20;17.77;;;1.80;99.90;;;;;;5037157;28;20116;-63
2023/02/15 00:51:18;;;;;;;42.28;18.67;;;1.70;99.90;;;;;;5036196;28;20075;-64
2023/02/15 00:53:44;;;;;;;46.10;19.10;;;1.70;99.90;;;;;;5021800;28;20044;-64
2023/02/15 00:56:10;;;;;;;42.60;18.95;;;1.70;99.90;;;;;;5035367;28;20041;-63
2023/02/15 00:58:36;;;;;;;44.80;19.05;;;1.60;99.90;;;;;;5034800;28;20120;-64
2023/02/15 01:01:11;;;;;;;41.28;18.85;;;1.70;99.90;;;;;;5020205;28;20040;-64
2023/02/15 01:03:37;;;;;;;47.40;18.30;;;1.70;99.90;;;;;;5040369;28;20029;-64
2023/02/15 01:06:03;;;;;;;47.33;19.85;;;1.70;99.90;;;;;;5037452;28;20021;-65
2023/02/15 01:08:30;;;;;;;40.33;18.33;;;1.70;99.90;;;;;;5037688;28;20025;-65
2023/02/15 01:10:56;;;;;;;46.30;19.00;;;1.70;99.90;;;;;;5038016;28;20040;-64
2023/02/15 01:13:22;;;;;;;42.67;18.20;;;1.60;99.90;;;;;;5038194;28;20108;-63
2023/02/15 01:15:54;;;;;;;47.58;17.58;;;1.50;99.90;;;;;;5027680;28;20128;-63
2023/02/15 01:18:20;;;;;;;41.67;18.25;;;1.50;99.90;;;;;;5047146;28;20025;-63
2023/02/15 01:20:47;;;;;;;43.28;18.90;;;1.50;99.90;;;;;;5039832;28;20046;-64
2023/02/15 01:23:13;;;;;;;44.60;18.85;;;1.50;99.90;;;;;;5040224;28;20502;-64
2023/02/15 01:25:39;;;;;;;41.17;19.17;;;1.50;99.90;;;;;;5040668;28;20082;-64
2023/02/15 01:28:05;;;;;;;49.70;20.38;;;1.40;99.90;;;;;;5040843;28;20025;-65
2023/02/15 01:30:30;;;;;;;45.75;19.90;;;1.40;99.90;;;;;;5045064;28;20033;-64
2023/02/15 01:32:57;;;;;;;44.70;20.13;;;1.40;99.90;;;;;;5045493;28;20502;-64
2023/02/15 01:35:23;;;;;;;43.45;18.95;;;1.30;99.90;;;;;;5044262;28;20025;-63
2023/02/15 01:37:48;;;;;;;47.08;19.75;;;1.30;99.90;;;;;;5043965;28;20396;-64
2023/02/15 01:40:16;;;;;;;41.45;18.60;;;1.20;99.90;;;;;;5026664;28;20021;-64
2023/02/15 01:42:42;;;;;;;46.95;19.48;;;1.20;99.90;;;;;;5038646;28;20099;-63
2023/02/15 01:45:31;;;;;;;39.78;18.45;;;1.30;99.90;;;;;;5040174;28;20040;-65
2023/02/15 01:48:05;;;;;;;42.53;19.00;;;1.30;99.90;;;;;;5039923;28;20041;-62
2023/02/15 01:50:42;;;;;;;49.00;18.38;;;1.40;99.90;;;;;;5030720;28;20086;-63
2023/02/15 01:53:33;;;;;;;45.67;19.33;;;1.40;99.90;;;;;;5040571;28;20108;-64
2023/02/15 01:56:13;;;;;;;46.60;19.20;;;1.40;99.90;;;;;;5035848;28;20040;-64
2023/02/15 01:58:38;;;;;;;44.10;19.20;;;1.40;99.90;;;;;;5039186;28;20036;-64
2023/02/15 02:01:07;;;;;;;42.75;19.98;;;1.40;99.90;;;;;;5025349;28;20025;-64
2023/02/15 02:03:44;;;;;;;42.97;18.42;;;1.40;99.90;;;;;;5040405;28;20460;-64
2023/02/15 02:06:10;;;;;;;41.15;18.45;;;1.40;99.90;;;;;;5040785;28;20057;-64
2023/02/15 02:08:36;;;;;;;41.88;17.88;;;1.30;99.90;;;;;;5036647;28;20589;-64
2023/02/15 02:11:02;;;;;;;43.47;19.50;;;1.30;99.90;;;;;;5055480;22;20036;-66
2023/02/15 02:13:28;;;;;;;39.53;17.83;;;1.40;99.90;;;;;;5009792;28;20038;-66
2023/02/15 02:16:04;;;;;;;46.17;19.90;;;1.40;99.90;;;;;;5012240;28;20042;-67
2023/02/15 02:19:03;;;;;;;50.33;21.38;;;1.40;99.90;;;;;;5015001;28;20051;-66
2023/02/15 02:21:44;;;;;;;48.83;18.92;;;1.40;99.90;;;;;;5017267;28;20056;-66
2023/02/15 02:24:38;;;;;;;36.20;16.45;;;1.40;99.90;;;;;;5027106;28;20049;-65
2023/02/15 02:27:39;;;;;;;41.58;16.83;;;1.30;99.90;;;;;;5026086;28;20021;-66
2023/02/15 02:30:08;;;;;;;43.20;17.00;;;1.20;99.90;;;;;;5025672;28;20050;-66
2023/02/15 02:32:46;;;;;;;43.63;18.95;;;1.10;99.90;;;;;;5024634;28;20384;-67
2023/02/15 02:35:29;;;;;;;44.38;19.40;;;1.00;99.90;;;;;;5029388;28;20032;-66
2023/02/15 02:38:13;;;;;;;41.92;17.95;;;1.00;99.90;;;;;;5025323;28;20548;-66
2023/02/15 02:40:45;;;;;;;44.08;18.40;;;1.00;99.90;;;;;;5027473;28;20043;-67
2023/02/15 02:43:27;;;;;;;39.45;18.67;;;1.10;99.90;;;;;;5030238;28;20180;-66
2023/02/15 02:46:00;;;;;;;43.83;18.50;;;1.00;99.90;;;;;;5019446;28;20117;-66
2023/02/15 02:48:31;;;;;;;43.22;19.58;;;1.00;99.90;;;;;;5020280;28;20116;-65
2023/02/15 02:50:56;;;;;;;43.92;18.45;;;1.00;99.90;;;;;;5025785;28;20030;-66
2023/02/15 02:53:22;;;;;;;47.97;18.98;;;1.00;99.90;;;;;;5023011;28;20033;-66
2023/02/15 02:55:58;;;;;;;49.25;19.35;;;1.10;99.90;;;;;;5029688;28;20017;-65
2023/02/15 02:58:32;;;;;;;47.25;18.45;;;1.10;99.90;;;;;;5027380;28;20037;-67
2023/02/15 03:01:21;;;;;;;50.95;19.05;;;1.00;99.90;;;;;;5014955;28;20022;-66
2023/02/15 03:03:52;;;;;;;47.45;19.65;;;1.00;99.90;;;;;;5023489;28;20034;-66
2023/02/15 03:06:49;;;;;;;48.25;19.52;;;1.00;99.90;;;;;;5026994;28;20753;-66
2023/02/15 03:09:34;;;;;;;47.58;19.73;;;1.00;99.90;;;;;;5011696;28;20036;-66
2023/02/15 03:12:01;;;;;;;45.35;20.02;;;0.90;99.90;;;;;;5011402;28;20441;-66
2023/02/15 03:14:27;;;;;;;45.28;18.88;;;0.90;99.90;;;;;;5026608;28;20036;-65
2023/02/15 03:16:54;;;;;;;36.88;17.55;;;0.90;99.90;;;;;;5028218;28;20108;-66
2023/02/15 03:19:30;;;;;;;45.45;19.75;;;0.90;99.90;;;;;;5022993;28;20076;-66
2023/02/15 03:22:08;;;;;;;35.53;17.10;;;0.80;99.90;;;;;;5018727;28;20032;-66
2023/02/15 03:25:00;;;;;;;43.15;18.30;;;0.80;99.90;;;;;;5021869;28;20416;-66
2023/02/15 03:27:44;;;;;;;45.28;19.48;;;0.80;99.90;;;;;;5007333;28;20520;-66
2023/02/15 03:30:13;;;;;;;45.17;19.10;;;0.80;99.90;;;;;;5031297;28;20022;-66
2023/02/15 03:32:40;;;;;;;43.58;19.48;;;0.70;99.90;;;;;;5031483;28;20021;-66
2023/02/15 03:35:07;;;;;;;47.28;19.88;;;0.70;99.90;;;;;;5011417;28;20084;-67
2023/02/15 03:37:46;;;;;;;47.25;18.63;;;0.70;99.90;;;;;;5026461;28;20037;-66
2023/02/15 03:43:34;;;;;;;45.92;18.75;;;0.70;99.90;;;;;;5025691;28;20044;-66
2023/02/15 03:46:11;;;;;;;47.33;18.17;;;0.70;99.90;;;;;;5020125;28;20327;-65
2023/02/15 03:48:42;;;;;;;47.10;18.58;;;0.70;99.90;;;;;;5024109;28;20480;-66
2023/02/15 03:51:42;;;;;;;43.30;18.40;;;0.70;99.90;;;;;;5016103;28;20025;-68
2023/02/15 03:54:38;;;;;;;41.60;18.55;;;0.70;99.90;;;;;;4975437;28;20504;-67
2023/02/15 04:03:28;;;;;;;37.55;16.63;;;0.60;99.90;;;;;;5020523;28;20041;-68
2023/02/15 04:05:54;;;;;;;39.22;18.13;;;0.60;99.90;;;;;;4991577;28;20038;-66
2023/02/15 04:08:20;;;;;;;39.75;18.67;;;0.60;99.90;;;;;;5023296;28;20543;-67
2023/02/15 04:10:52;;;;;;;45.58;18.50;;;0.60;99.90;;;;;;5022956;28;20033;-67
2023/02/15 04:13:30;;;;;;;45.42;16.55;;;0.50;99.90;;;;;;5022433;28;20081;-66
2023/02/15 04:16:05;;;;;;;41.83;17.73;;;0.50;99.90;;;;;;5021186;28;20033;-66
2023/02/15 04:26:55;;;;;;;40.22;17.38;;;0.40;99.90;;;;;;5021332;28;20095;-67
2023/02/15 04:29:22;;;;;;;41.70;17.60;;;0.50;99.90;;;;;;5023394;28;20032;-68
2023/02/15 04:31:49;;;;;;;41.78;16.45;;;0.50;99.90;;;;;;5022644;28;20073;-68
2023/02/15 04:34:15;;;;;;;51.40;18.35;;;0.50;99.90;;;;;;5024532;28;20116;-68
2023/02/15 04:36:41;;;;;;;40.63;17.00;;;0.50;99.90;;;;;;5027337;28;20113;-67
2023/02/15 04:39:07;;;;;;;48.22;17.90;;;0.60;99.90;;;;;;5015909;28;20049;-65
2023/02/15 04:41:33;;;;;;;41.25;17.50;;;0.50;99.90;;;;;;5018945;28;20105;-64
2023/02/15 04:44:00;;;;;;;36.60;15.95;;;0.50;99.90;;;;;;5022478;28;20029;-66
2023/02/15 04:46:26;;;;;;;44.40;17.88;;;0.50;99.90;;;;;;5013796;28;20030;-66
2023/02/15 04:48:52;;;;;;;35.50;16.65;;;0.40;99.90;;;;;;5025539;28;20033;-67
2023/02/15 04:51:17;;;;;;;48.75;18.55;;;0.40;99.90;;;;;;5021445;28;20029;-67
2023/02/15 04:53:43;;;;;;;44.17;18.88;;;0.50;99.90;;;;;;5028038;28;20037;-67
2023/02/15 04:56:09;;;;;;;38.55;16.48;;;0.50;99.90;;;;;;5027682;28;20060;-67
2023/02/15 04:58:35;;;;;;;38.33;15.82;;;0.50;99.90;;;;;;5026610;28;20021;-67
2023/02/15 05:01:00;;;;;;;38.05;16.02;;;0.40;99.90;;;;;;5024646;28;20033;-67
2023/02/15 05:03:26;;;;;;;39.43;16.90;;;0.40;99.90;;;;;;5016319;28;20018;-67
2023/02/15 05:05:52;;;;;;;38.58;17.02;;;0.40;99.90;;;;;;5025677;28;20767;-67
2023/02/15 05:08:17;;;;;;;39.53;16.73;;;0.30;99.90;;;;;;5019355;28;20034;-67
2023/02/15 05:10:43;;;;;;;39.50;16.38;;;0.30;99.90;;;;;;5006887;28;20030;-69
2023/02/15 05:13:09;;;;;;;39.67;15.43;;;0.30;99.90;;;;;;5024034;28;20060;-67
2023/02/15 05:15:34;;;;;;;33.15;13.90;;;0.30;99.90;;;;;;5025543;28;20025;-66
2023/02/15 05:18:01;;;;;;;38.95;16.20;;;0.30;99.90;;;;;;5025045;28;20033;-66
2023/02/15 05:20:27;;;;;;;38.80;15.60;;;0.40;99.90;;;;;;5024444;28;20018;-67
2023/02/15 05:22:55;;;;;;;38.17;15.13;;;0.40;99.90;;;;;;5027759;28;20075;-68
2023/02/15 05:28:19;;;;;;;43.95;17.15;;;0.40;99.90;;;;;;5023225;28;20067;-67
2023/02/15 05:30:50;;;;;;;42.58;17.23;;;0.40;99.90;;;;;;5023822;28;20025;-67
2023/02/15 05:33:16;;;;;;;47.88;17.88;;;0.40;99.90;;;;;;5022637;28;20079;-68
2023/02/15 05:35:42;;;;;;;40.85;15.35;;;0.40;99.90;;;;;;5021246;28;20537;-67
2023/02/15 05:38:08;;;;;;;35.88;15.88;;;0.40;99.90;;;;;;5021138;28;20100;-67
2023/02/15 05:40:34;;;;;;;41.58;16.55;;;0.30;99.90;;;;;;5017384;28;20026;-67
2023/02/15 05:43:00;;;;;;;38.40;17.38;;;0.30;99.90;;;;;;5026933;28;20152;-67
2023/02/15 05:45:26;;;;;;;35.33;15.95;;;0.30;99.90;;;;;;5017672;28;20030;-68
2023/02/15 05:47:51;;;;;;;40.17;16.95;;;0.30;99.90;;;;;;5024070;28;20022;-67
2023/02/15 05:50:17;;;;;;;43.03;17.73;;;0.30;99.90;;;;;;5023469;28;20460;-67
2023/02/15 05:52:43;;;;;;;42.20;15.52;;;0.30;99.90;;;;;;5018807;28;20056;-65
2023/02/15 05:55:08;;;;;;;36.22;15.82;;;0.30;99.90;;;;;;5021010;28;20026;-65
2023/02/15 05:57:35;;;;;;;41.13;16.47;;;0.20;99.90;;;;;;5025960;28;20440;-68
2023/02/15 06:00:04;;;;;;;34.93;15.10;;;0.30;99.90;;;;;;5024247;28;20389;-67
2023/02/15 06:02:34;;;;;;;40.57;15.93;;;0.20;99.90;;;;;;5027355;28;20021;-68
2023/02/15 06:04:59;;;;;;;37.22;15.90;;;0.20;99.90;;;;;;5019994;28;20033;-67
2023/02/15 06:07:25;;;;;;;34.38;15.80;;;0.20;99.90;;;;;;5022648;28;20036;-67
2023/02/15 06:09:50;;;;;;;41.00;16.13;;;0.20;99.90;;;;;;5027637;28;20048;-68
2023/02/15 06:12:16;;;;;;;36.47;16.17;;;0.10;99.90;;;;;;5016410;28;20091;-69
2023/02/15 06:14:41;;;;;;;37.75;14.70;;;0.10;99.90;;;;;;5017731;28;20049;-67
2023/02/15 06:17:07;;;;;;;37.25;16.83;;;0.10;99.90;;;;;;5028963;28;20096;-66
2023/02/15 06:19:33;;;;;;;39.40;16.30;;;0.10;99.90;;;;;;5030092;28;20480;-68
2023/02/15 06:21:58;;;;;;;40.90;16.13;;;0.10;99.90;;;;;;5022277;28;20025;-65
2023/02/15 06:24:24;;;;;;;39.42;16.98;;;0.10;99.90;;;;;;5025061;28;20060;-67
2023/02/15 06:26:49;;;;;;;43.00;15.77;;;0.10;99.90;;;;;;5017841;28;20036;-67
2023/02/15 06:29:15;;;;;;;40.57;15.67;;;0.00;99.90;;;;;;5025701;28;20032;-66
2023/02/15 06:31:41;;;;;;;33.53;15.32;;;0.00;99.90;;;;;;5026047;28;20022;-67
2023/02/15 06:34:06;;;;;;;41.33;17.27;;;0.00;99.90;;;;;;5027036;28;20086;-66
2023/02/15 06:36:32;;;;;;;37.80;16.27;;;-0.10;99.90;;;;;;5019933;28;20404;-67
2023/02/15 06:38:57;;;;;;;39.40;16.13;;;0.00;99.90;;;;;;5027512;28;20017;-68
2023/02/15 06:41:23;;;;;;;37.17;14.90;;;0.00;99.90;;;;;;5030703;28;20025;-67
2023/02/15 06:43:49;;;;;;;38.20;15.40;;;-0.10;99.90;;;;;;5027154;28;20428;-67
2023/02/15 06:46:15;;;;;;;43.83;16.13;;;0.00;99.90;;;;;;5026745;28;20044;-68
2023/02/15 06:48:41;;;;;;;35.13;15.95;;;0.00;99.90;;;;;;5022446;28;20017;-67
2023/02/15 06:51:06;;;;;;;37.17;15.50;;;0.00;99.90;;;;;;5027790;28;20376;-68
2023/02/15 06:53:32;;;;;;;38.53;16.27;;;0.00;99.90;;;;;;5023376;28;20037;-66
2023/02/15 06:56:06;;;;;;;36.08;14.73;;;0.00;99.90;;;;;;5020447;28;20022;-67
2023/02/15 06:58:32;;;;;;;;;;;0.10;99.90;;;;;;5027027;28;20559;-67
2023/02/15 07:00:57;;;;;;;35.73;14.07;;;0.10;99.90;;;;;;5029044;28;19911;-66
2023/02/15 07:03:23;;;;;;;37.35;14.48;;;0.10;99.90;;;;;;5022540;28;20025;-68
2023/02/15 07:05:48;;;;;;;38.17;15.77;;;0.10;99.90;;;;;;5021473;28;20539;-67
2023/02/15 07:08:14;;;;;;;40.00;14.90;;;0.10;99.90;;;;;;5024000;28;20101;-67
2023/02/15 07:10:44;;;;;;;32.85;14.95;;;0.20;99.90;;;;;;5025507;28;20370;-68
2023/02/15 07:13:09;;;;;;;35.47;15.40;;;0.20;99.90;;;;;;5022151;28;20404;-68
2023/02/15 07:15:35;;;;;;;36.95;14.55;;;0.30;99.90;;;;;;5008438;28;20125;-66
2023/02/15 07:18:00;;;;;;;31.00;14.40;;;0.30;99.90;;;;;;5017556;28;20550;-68
2023/02/15 07:20:26;;;;;;;32.05;14.13;;;0.30;99.90;;;;;;5023223;28;20435;-67
2023/02/15 07:22:52;;;;;;;28.90;12.90;;;0.40;99.90;;;;;;5023737;28;20048;-67
2023/02/15 07:25:18;;;;;;;34.53;15.60;;;0.40;99.90;;;;;;5022385;28;20041;-69
2023/02/15 07:27:44;;;;;;;30.80;13.52;;;0.50;99.90;;;;;;5018615;28;20029;-67
2023/02/15 07:30:12;;;;;;;32.20;13.88;;;0.50;99.90;;;;;;5024249;28;20028;-67
2023/02/15 07:33:22;;;;;;;30.92;12.85;;;0.60;99.90;;;;;;5025994;28;20457;-67
2023/02/15 07:35:24;;;;;;;38.55;14.55;;;0.60;99.90;;;;;;5027670;28;20120;-68
2023/02/15 07:37:49;;;;;;;33.72;12.93;;;0.70;99.90;;;;;;5024649;28;20456;-67
2023/02/15 07:40:15;;;;;;;29.15;12.80;;;0.80;99.90;;;;;;5018706;28;20049;-66
2023/02/15 07:42:41;;;;;;;32.17;13.00;;;0.80;99.90;;;;;;5003307;28;20448;-67
2023/02/15 07:45:07;;;;;;;31.27;12.13;;;0.90;99.90;;;;;;5023645;28;20021;-67
2023/02/15 07:47:32;;;;;;;32.90;13.18;;;0.90;99.90;;;;;;5017866;28;20404;-68
2023/02/15 07:49:58;;;;;;;31.52;13.45;;;1.00;99.90;;;;;;5018797;28;20029;-68
2023/02/15 07:52:25;;;;;;;28.30;12.35;;;1.00;99.90;;;;;;5020080;28;20392;-68
2023/02/15 07:54:50;;;;;;;29.50;12.90;;;1.00;99.90;;;;;;5022928;28;20077;-67
2023/02/15 07:57:16;;;;;;;27.90;12.63;;;1.10;99.90;;;;;;5028025;28;20064;-67
2023/02/15 07:59:41;;;;;;;21.83;11.13;;;1.20;99.90;;;;;;5024972;28;20030;-67
2023/02/15 08:02:10;;;;;;;28.27;12.65;;;1.30;99.90;;;;;;5023572;28;20030;-67
2023/02/15 08:04:36;;;;;;;32.85;12.82;;;1.30;99.90;;;;;;5021350;28;20075;-66
2023/02/15 08:07:01;;;;;;;21.63;11.27;;;1.40;99.90;;;;;;5020855;28;20021;-67
2023/02/15 08:09:27;;;;;;;25.67;11.65;;;1.40;99.90;;;;;;5024588;28;20029;-67
2023/02/15 08:11:52;;;;;;;27.77;11.63;;;1.50;99.90;;;;;;5025721;28;20040;-68
2023/02/15 08:14:20;;;;;;;25.08;10.57;;;1.60;99.90;;;;;;5051398;22;20045;-66
2023/02/15 08:16:57;;;;;;;24.40;10.55;;;1.70;99.90;;;;;;5063628;28;20047;-64
2023/02/15 08:19:28;;;;;;;24.13;10.93;;;1.70;99.90;;;;;;5058523;28;20494;-66
2023/02/15 08:21:59;;;;;;;25.60;10.32;;;1.80;99.90;;;;;;5035725;28;20024;-65
2023/02/15 08:24:27;;;;;;;20.73;10.40;;;1.90;99.90;;;;;;5064155;28;20619;-66
2023/02/15 08:26:53;;;;;;;23.67;11.13;;;1.90;99.90;;;;;;5047947;28;20029;-66
2023/02/15 08:29:22;;;;;;;25.00;9.85;;;1.90;99.90;;;;;;5049187;28;20024;-66
2023/02/15 08:31:48;;;;;;;18.92;10.20;;;2.00;99.90;;;;;;5065172;28;20166;-66
2023/02/15 08:34:17;;;;;;;27.90;11.20;;;2.10;99.90;;;;;;5056187;28;20024;-66
2023/02/15 08:36:44;;;;;;;21.35;10.25;;;2.10;99.90;;;;;;5033707;28;20028;-66
2023/02/15 08:39:11;;;;;;;23.02;10.45;;;2.20;99.90;;;;;;5066582;28;20052;-64
2023/02/15 08:41:38;;;;;;;21.95;10.40;;;2.20;99.90;;;;;;5053440;28;20037;-65
2023/02/15 08:44:06;;;;;;;18.15;9.43;;;2.30;99.90;;;;;;5055328;28;20052;-64
2023/02/15 08:46:34;;;;;;;23.77;9.98;;;2.30;99.90;;;;;;5048193;28;20450;-66
2023/02/15 08:49:01;;;;;;;22.90;11.10;;;2.40;99.90;;;;;;5048199;28;20029;-66
2023/02/15 08:51:35;;;;;;;24.17;10.18;;;2.40;99.90;;;;;;5056050;28;20025;-65
2023/02/15 08:54:04;;;;;;;26.52;10.38;;;2.50;99.90;;;;;;5041757;28;20112;-65
2023/02/15 08:56:34;;;;;;;18.50;9.07;;;2.60;99.90;;;;;;5030108;28;20028;-65
2023/02/15 08:59:00;;;;;;;20.13;10.13;;;2.70;99.90;;;;;;5048823;28;20071;-65
2023/02/15 09:01:28;;;;;;;20.50;9.10;;;2.70;99.90;;;;;;5047041;28;20048;-64
2023/02/15 09:04:03;;;;;;;22.05;9.65;;;2.80;99.90;;;;;;5049357;28;20029;-66
2023/02/15 09:06:29;;;;;;;18.42;9.57;;;2.90;99.90;;;;;;5049020;28;20087;-66
2023/02/15 09:08:56;;;;;;;24.63;9.68;;;2.90;99.90;;;;;;5042190;28;20025;-66
2023/02/15 09:11:24;;;;;;;22.73;10.10;;;3.00;99.90;;;;;;5062495;28;20082;-66
2023/02/15 09:13:53;;;;;;;19.77;9.68;;;3.10;99.90;;;;;;5034495;28;20873;-65
2023/02/15 09:16:20;;;;;;;19.70;9.57;;;3.20;99.90;;;;;;5049388;28;20035;-66
2023/02/15 09:18:46;;;;;;;20.45;9.32;;;3.20;99.90;;;;;;5048232;28;20025;-66
2023/02/15 09:21:18;;;;;;;20.92;9.95;;;3.30;99.90;;;;;;5050308;28;20083;-65
2023/02/15 09:23:45;;;;;;;20.90;10.20;;;3.30;99.90;;;;;;5048243;28;20033;-66
2023/02/15 09:26:14;;;;;;;20.00;9.68;;;3.40;99.90;;;;;;5033576;28;20095;-64
2023/02/15 09:28:40;;;;;;;20.10;10.57;;;3.50;99.90;;;;;;5048871;28;20737;-65
2023/02/15 09:31:15;;;;;;;21.45;9.75;;;3.60;99.90;;;;;;5044656;28;20028;-65
2023/02/15 09:33:43;;;;;;;17.83;8.55;;;3.70;99.90;;;;;;5062428;28;20025;-65
2023/02/15 09:36:21;;;;;;;17.40;9.18;;;3.70;99.90;;;;;;5041194;28;20030;-65
2023/02/15 09:38:52;;;;;;;17.45;8.43;;;3.80;99.90;;;;;;5047955;28;20031;-66
2023/02/15 09:41:49;;;;;;;16.48;8.25;;;3.90;99.90;;;;;;5057761;28;20021;-63
2023/02/15 09:44:31;;;;;;;19.80;9.20;;;4.40;99.90;;;;;;5045213;28;20021;-63
2023/02/15 09:47:15;;;;;;;19.70;9.27;;;5.10;99.90;;;;;;5053348;28;20100;-64
2023/02/15 09:49:57;;;;;;;15.20;8.27;;;5.70;99.90;;;;;;5055885;28;20033;-63
2023/02/15 09:52:38;;;;;;;19.35;8.85;;;6.10;99.90;;;;;;5057003;28;20070;-64
2023/02/15 09:55:18;;;;;;;17.05;9.18;;;6.40;99.90;;;;;;5054199;28;20503;-63
2023/02/15 09:58:23;;;;;;;15.55;7.88;;;6.50;99.90;;;;;;5059034;28;20043;-63
2023/02/15 10:00:58;;;;;;;14.93;8.05;;;6.70;99.90;;;;;;5024616;28;20441;-64
2023/02/15 10:03:33;;;;;;;15.65;7.97;;;7.00;99.90;;;;;;5042704;28;20017;-62
2023/02/15 10:06:41;;;;;;;15.45;7.95;;;7.20;99.90;;;;;;5047151;28;20112;-64
2023/02/15 10:09:35;;;;;;;13.63;7.68;;;7.40;99.90;;;;;;5044074;28;20149;-63
2023/02/15 10:12:12;;;;;;;14.25;7.97;;;7.60;99.90;;;;;;5046254;28;20029;-64
2023/02/15 10:15:13;;;;;;;14.30;7.70;;;7.90;99.90;;;;;;5050989;28;20032;-63
2023/02/15 10:17:41;;;;;;;12.75;8.05;;;7.90;99.90;;;;;;5006713;28;20492;-64
2023/02/15 10:20:17;;;;;;;16.42;8.82;;;7.70;99.90;;;;;;5050287;28;20428;-63
2023/02/15 10:22:46;;;;;;;15.73;8.80;;;7.50;99.90;;;;;;5054908;28;20744;-64
2023/02/15 10:25:33;;;;;;;19.30;8.32;;;7.40;99.90;;;;;;5049668;28;20115;-63
2023/02/15 10:28:20;;;;;;;17.52;7.93;;;7.10;99.90;;;;;;5051732;28;20053;-63
2023/02/15 10:30:51;;;;;;;16.55;9.35;;;7.00;99.90;;;;;;5047287;28;20093;-65
2023/02/15 10:33:37;;;;;;;14.93;8.10;;;7.00;99.90;;;;;;5031347;28;20024;-63
2023/02/15 10:36:13;;;;;;;15.68;8.02;;;7.00;99.90;;;;;;5045793;28;20028;-64
2023/02/15 10:38:47;;;;;;;14.45;7.90;;;7.10;99.90;;;;;;5050207;28;20017;-63
2023/02/15 10:41:45;;;;;;;16.10;8.82;;;7.30;99.90;;;;;;5036480;28;20458;-64
2023/02/15 10:44:19;;;;;;;16.98;8.48;;;7.20;99.90;;;;;;5046735;28;20021;-63
2023/02/15 10:47:05;;;;;;;17.02;8.38;;;7.20;99.90;;;;;;5050324;28;20025;-63
2023/02/15 10:49:53;;;;;;;19.83;8.80;;;7.20;99.90;;;;;;5042300;28;20048;-63
2023/02/15 10:52:30;;;;;;;16.85;8.23;;;7.10;99.90;;;;;;5042580;28;20029;-63
2023/02/15 10:55:08;;;;;;;14.75;8.30;;;7.20;99.90;;;;;;5039328;28;20422;-64
2023/02/15 10:57:37;;;;;;;19.48;8.50;;;7.30;99.90;;;;;;5052135;28;20024;-64
2023/02/15 11:00:09;;;;;;;13.88;7.72;;;7.40;99.90;;;;;;5047683;28;20091;-64
2023/02/15 11:02:37;;;;;;;19.23;9.68;;;7.40;99.90;;;;;;5051806;28;20383;-63
2023/02/15 11:05:18;;;;;;;19.45;8.90;;;7.50;99.90;;;;;;5050177;28;20024;-63
2023/02/15 11:07:47;;;;;;;16.90;8.35;;;7.70;99.90;;;;;;5042797;28;20043;-63
2023/02/15 11:10:19;;;;;;;15.73;7.57;;;7.90;99.90;;;;;;5044678;28;20044;-63
2023/02/15 11:12:46;;;;;;;15.93;7.88;;;7.90;99.90;;;;;;5061124;28;20395;-64
2023/02/15 11:15:28;;;;;;;17.95;8.57;;;8.00;99.90;;;;;;5044518;28;20052;-63
2023/02/15 11:18:03;;;;;;;18.83;9.30;;;8.10;99.90;;;;;;5037064;28;20034;-63
2023/02/15 11:20:38;;;;;;;15.02;7.63;;;8.10;99.90;;;;;;5028405;28;20013;-64
2023/02/15 11:23:15;;;;;;;18.63;8.30;;;8.20;99.90;;;;;;5033654;28;20148;-63
2023/02/15 11:25:41;;;;;;;15.38;8.50;;;8.40;99.90;;;;;;5030092;28;20493;-64
2023/02/15 11:28:32;;;;;;;15.63;8.32;;;8.40;99.90;;;;;;5029018;28;20497;-63
2023/02/15 11:31:02;;;;;;;15.55;8.30;;;8.50;99.90;;;;;;5003724;28;20073;-64
2023/02/15 11:33:34;;;;;;;16.63;8.90;;;8.60;99.90;;;;;;5020647;28;20108;-63
2023/02/15 11:36:17;;;;;;;18.15;8.32;;;8.70;99.90;;;;;;5034649;28;20037;-63
2023/02/15 11:38:45;;;;;;;29.90;15.73;;;8.80;99.90;;;;;;5024915;28;20057;-64
2023/02/15 11:41:16;;;;;;;59.92;33.30;;;8.80;99.90;;;;;;5023516;28;20429;-64
2023/02/15 11:43:44;;;;;;;27.20;15.02;;;8.90;99.90;;;;;;5023662;28;20451;-64
2023/02/15 11:46:12;;;;;;;32.90;18.25;;;9.00;99.90;;;;;;5023700;28;20022;-63
2023/02/15 11:48:38;;;;;;;22.08;12.52;;;9.00;99.90;;;;;;5005181;28;20136;-65
2023/02/15 11:51:04;;;;;;;26.95;16.95;;;9.10;99.90;;;;;;5007805;28;20448;-62
2023/02/15 11:53:33;;;;;;;17.20;9.45;;;9.00;99.90;;;;;;5010278;28;20641;-63
2023/02/15 11:56:00;;;;;;;16.58;9.00;;;9.00;99.90;;;;;;5035514;28;20387;-64
2023/02/15 11:58:25;;;;;;;16.67;9.05;;;9.00;99.90;;;;;;5026588;28;20030;-63
2023/02/15 12:01:10;;;;;;;22.38;9.35;;;9.10;99.90;;;;;;5011127;28;20024;-64
2023/02/15 12:03:41;;;;;;;;;;;9.20;99.90;;;;;;5031053;28;20096;-63
2023/02/15 12:06:21;;;;;;;16.80;9.23;;;9.30;99.90;;;;;;5029720;28;19905;-64
2023/02/15 12:09:25;;;;;;;16.77;8.95;;;9.30;99.90;;;;;;5024391;28;20032;-64
2023/02/15 12:11:50;;;;;;;17.95;9.40;;;9.30;99.90;;;;;;5009548;28;20041;-64
2023/02/15 12:14:16;;;;;;;18.35;9.38;;;9.40;99.90;;;;;;5034098;28;20420;-64
2023/02/15 12:16:51;;;;;;;17.98;9.40;;;9.50;99.90;;;;;;5031379;28;20112;-64
2023/02/15 12:19:40;;;;;;;22.85;9.48;;;9.40;99.90;;;;;;5049981;28;20418;-65
2023/02/15 12:22:17;;;;;;;21.23;8.93;;;9.50;99.90;;;;;;5042653;28;20021;-64
2023/02/15 12:24:47;;;;;;;21.83;10.73;;;9.60;99.90;;;;;;5021628;28;20043;-64
2023/02/15 12:27:21;;;;;;;21.08;9.23;;;9.60;99.90;;;;;;5025343;28;20538;-65
2023/02/15 12:30:07;;;;;;;20.70;10.05;;;9.60;99.90;;;;;;5044759;28;20029;-63
2023/02/15 12:32:54;;;;;;;16.92;9.65;;;9.60;99.90;;;;;;5015379;28;20037;-65
2023/02/15 12:35:37;;;;;;;27.10;15.65;;;9.60;99.90;;;;;;5046872;28;20032;-65
2023/02/15 12:38:05;;;;;;;35.83;20.50;;;9.60;99.90;;;;;;5044918;28;20448;-64
2023/02/15 12:40:33;;;;;;;17.67;9.63;;;9.60;99.90;;;;;;5032476;28;20036;-64
2023/02/15 12:42:59;;;;;;;19.70;10.32;;;9.70;99.90;;;;;;5043959;28;20040;-63
2023/02/15 12:45:29;;;;;;;18.15;9.73;;;9.70;99.90;;;;;;5042668;28;20116;-64
2023/02/15 12:48:17;;;;;;;18.63;10.20;;;9.80;99.90;;;;;;5048420;28;20177;-64
2023/02/15 12:50:50;;;;;;;15.77;7.97;;;9.80;99.90;;;;;;5029550;28;20448;-65
2023/02/15 12:53:19;;;;;;;18.02;8.48;;;9.80;99.90;;;;;;5035091;28;20176;-63
2023/02/15 12:56:01;;;;;;;17.23;8.73;;;9.80;99.90;;;;;;5039804;28;20025;-64
2023/02/15 12:58:34;;;;;;;21.45;9.88;;;9.80;99.90;;;;;;5043801;28;20131;-62
2023/02/15 13:01:03;;;;;;;19.50;9.87;;;9.80;99.90;;;;;;5044888;28;20026;-65
2023/02/15 13:03:29;;;;;;;18.15;9.95;;;9.80;99.90;;;;;;5044578;28;20029;-65
2023/02/15 13:05:57;;;;;;;18.48;9.82;;;9.80;99.90;;;;;;5055409;28;20075;-64
2023/02/15 13:08:30;;;;;;;15.40;9.05;;;9.80;99.90;;;;;;5042844;28;20031;-64
2023/02/15 13:11:12;;;;;;;14.63;8.15;;;9.80;99.90;;;;;;5042302;28;20079;-64
2023/02/15 13:14:29;;;;;;;19.70;9.98;;;9.80;99.90;;;;;;5048464;28;20024;-65
2023/02/15 13:17:00;;;;;;;28.52;9.50;;;9.80;99.90;;;;;;5041853;28;20452;-64
2023/02/15 13:19:36;;;;;;;21.60;9.77;;;9.90;99.90;;;;;;5050438;28;20028;-65
2023/02/15 13:22:08;;;;;;;17.92;9.32;;;9.90;99.90;;;;;;5045318;28;20074;-64